• Join FlightAware (Why Join?)
  • Login
  • US Flag 
06:00AM EDT


 

Airport Tracker/Info


-or-


 

Live Flight TrackerFlight Track Log ✈ SWA554 ✈ 12-Apr-2013 ✈ KPHX - KMKE

Flight Track Log - Related Links

Times and Time Zones

All times are in EDT time to prevent confusion due to time zone crossing. See the SWA554 flight status page for this flight to view local times or setup timezone preferences in your user account.

Time Position Orientation Groundspeed Altitude Reporting Facility
EDT Latitude Longitude Course Direction KTS MPH feet Rate Location/Type
10:54AM 33.4333 -111.9833 90° East 176 203 2,100  Level Phoenix TRACON
10:54AM 33.4333 -111.9500 90° East 175 201 3,100 2,340 Climbing Phoenix TRACON
10:55AM 33.4333 -111.8667 90° East 245 282 5,900 2,460 Climbing Phoenix TRACON
10:56AM 33.4442 -111.8528 47° Northeast 255 293 6,700 3,060 Climbing Albuquerque Center
10:57AM 33.4958 -111.7594 56° Northeast 283 326 10,400 2,700 Climbing Albuquerque Center
10:58AM 33.5397 -111.6681 60° Northeast 326 375 12,400 2,580 Climbing Albuquerque Center
10:59AM 33.5789 -111.5628 66° East 347 399 15,800 3,060 Climbing Albuquerque Center
11:00AM 33.6206 -111.4525 66° East 364 419 18,800 3,000 Climbing Albuquerque Center
11:01AM 33.6714 -111.3122 66° East 384 442 22,000 2,640 Climbing Albuquerque Center
11:02AM 33.7175 -111.1883 66° East 405 466 24,300 2,040 Climbing Albuquerque Center
11:03AM 33.7636 -111.0578 67° East 427 491 26,300 1,800 Climbing Albuquerque Center
11:04AM 33.8117 -110.9211 67° East 441 507 28,100 1,680 Climbing Albuquerque Center
11:05AM 33.8608 -110.7806 67° East 453 521 29,800 1,500 Climbing Albuquerque Center
11:06AM 33.9114 -110.6353 67° East 466 536 31,300 1,560 Climbing Albuquerque Center
11:07AM 33.9750 -110.4547 67° East 483 556 33,100 1,380 Climbing Albuquerque Center
11:08AM 34.0267 -110.3117 66° East 494 568 34,200 1,200 Climbing Albuquerque Center
11:09AM 34.0800 -110.1567 67° East 501 577 35,600 1,320 Climbing Albuquerque Center
11:10AM 34.1419 -109.9747 68° East 507 583 37,000 1,200 Climbing Albuquerque Center
11:11AM 34.1944 -109.8267 67° East 504 580 38,200 960 Climbing Albuquerque Center
11:12AM 34.2519 -109.6533 68° East 500 575 39,000 360 Climbing Albuquerque Center
11:13AM 34.3033 -109.5053 67° East 499 574 39,000  Level Albuquerque Center
11:14AM 34.3617 -109.3319 68° East 499 574 39,000  Level Albuquerque Center
11:15AM 34.4111 -109.1856 68° East 496 571 39,000  Level Albuquerque Center
11:17AM 34.4628 -109.0097 70° East 495 570 39,000  Level Albuquerque Center
11:18AM 34.5042 -108.8589 72° East 495 570 39,000  Level Albuquerque Center
11:19AM 34.5522 -108.6836 72° East 493 567 39,000  Level Albuquerque Center
11:20AM 34.5936 -108.5308 72° East 495 570 39,000  Level Albuquerque Center
11:21AM 34.6358 -108.3789 71° East 495 570 39,000  Level Albuquerque Center
11:22AM 34.6869 -108.1892 72° East 494 568 39,000  Level Albuquerque Center
11:23AM 34.7286 -108.0325 72° East 491 565 39,000  Level Albuquerque Center
11:24AM 34.7714 -107.8728 72° East 494 568 39,000  Level Albuquerque Center
11:25AM 34.8133 -107.7136 72° East 494 568 39,000  Level Albuquerque Center
11:26AM 34.8553 -107.5547 72° East 495 570 39,000  Level Albuquerque Center
11:27AM 34.8967 -107.3925 73° East 499 574 39,000  Level Albuquerque Center
11:28AM 34.9461 -107.2008 72° East 497 572 39,000  Level Albuquerque Center
11:29AM 34.9908 -107.0306 72° East 504 580 39,000  Level Albuquerque Center
11:30AM 35.0283 -106.8775 73° East 496 571 39,000  Level Albuquerque Center
11:31AM 35.0836 -106.7094 68° East 483 556 39,000  Level Albuquerque Center
11:32AM 35.1425 -106.5594 64° Northeast 504 580 39,000  Level Albuquerque Center
11:33AM 35.1997 -106.3981 67° East 503 579 39,000  Level Albuquerque Center
11:34AM 35.2556 -106.2461 66° East 495 570 39,000  Level Albuquerque Center
11:35AM 35.3175 -106.0722 66° East 489 563 39,000  Level Albuquerque Center
11:36AM 35.3753 -105.9167 65° Northeast 496 571 39,000  Level Albuquerque Center
11:37AM 35.4358 -105.7608 64° Northeast 500 575 39,000  Level Albuquerque Center
11:38AM 35.4914 -105.6058 66° East 495 570 39,000  Level Albuquerque Center
11:39AM 35.5444 -105.4539 67° East 481 554 39,000  Level Albuquerque Center
11:40AM 35.5969 -105.3006 67° East 481 554 39,000  Level Albuquerque Center
11:41AM 35.6533 -105.1447 66° East 490 564 39,000  Level Albuquerque Center
11:42AM 35.7292 -105.0036 56° Northeast 485 558 39,000  Level Albuquerque Center
11:43AM 35.8206 -104.8456 54° Northeast 482 555 39,000  Level Albuquerque Center
11:44AM 35.9017 -104.7075 54° Northeast 486 559 39,000  Level Albuquerque Center
11:45AM 35.9806 -104.5675 55° Northeast 490 564 39,000  Level Albuquerque Center
11:46AM 36.0575 -104.4319 55° Northeast 482 555 39,000  Level Albuquerque Center
11:48AM 36.1367 -104.2922 55° Northeast 485 558 39,000  Level Albuquerque Center
11:49AM 36.2167 -104.1528 55° Northeast 489 563 39,000  Level Albuquerque Center
11:50AM 36.2953 -104.0128 55° Northeast 489 563 39,000  Level Albuquerque Center
11:51AM 36.3742 -103.8722 55° Northeast 491 565 39,000  Level Albuquerque Center
11:52AM 36.4661 -103.7089 55° Northeast 490 564 39,000  Level Albuquerque Center
11:53AM 36.5433 -103.5700 55° Northeast 487 560 39,000  Level Albuquerque Center
11:54AM 36.6214 -103.4278 56° Northeast 491 565 39,000  Level Albuquerque Center
11:55AM 36.7031 -103.2781 56° Northeast 489 563 39,000  Level Albuquerque Center
11:56AM 36.7761 -103.1453 55° Northeast 487 560 39,000  Level Albuquerque Center
11:57AM 36.8606 -102.9894 56° Northeast 487 560 39,000  Level Albuquerque Center
11:58AM 36.9322 -102.8569 56° Northeast 483 556 39,000  Level Albuquerque Center
11:59AM 37.0183 -102.6997 56° Northeast 488 562 39,000  Level Albuquerque Center
12:00PM 37.0906 -102.5661 56° Northeast 488 562 39,000  Level Albuquerque Center
12:01PM 37.1631 -102.4300 56° Northeast 489 563 39,000  Level Albuquerque Center
12:02PM 37.2464 -102.2711 57° Northeast 490 564 39,000  Level Albuquerque Center
12:03PM 37.3200 -102.1342 56° Northeast 490 564 39,000  Level Albuquerque Center
12:04PM 37.4014 -101.9733 57° Northeast 490 564 39,000  Level Albuquerque Center
12:05PM 37.5097 -101.7678 56° Northeast 489 563 39,000  Level Kansas City Center
12:07PM 37.5817 -101.6311 56° Northeast 488 562 39,000  Level Kansas City Center
12:08PM 37.6531 -101.4942 57° Northeast 487 560 39,000  Level Kansas City Center
12:09PM 37.7372 -101.3317 57° Northeast 491 565 39,000  Level Kansas City Center
12:10PM 37.8092 -101.1931 57° Northeast 490 564 39,000  Level Kansas City Center
12:11PM 37.8939 -101.0286 57° Northeast 492 566 39,000  Level Kansas City Center
12:12PM 37.9664 -100.8869 57° Northeast 494 568 39,000  Level Kansas City Center
12:13PM 38.0514 -100.7206 57° Northeast 499 574 39,000  Level Kansas City Center
12:14PM 38.1203 -100.5733 59° Northeast 502 578 39,000  Level Kansas City Center
12:15PM 38.1864 -100.4250 60° Northeast 503 579 39,000  Level Kansas City Center
12:16PM 38.2658 -100.2547 59° Northeast 501 577 39,000  Level Kansas City Center
12:17PM 38.3331 -100.1078 60° Northeast 500 575 39,000  Level Kansas City Center
12:18PM 38.4108 -99.9383 60° Northeast 498 573 39,000  Level Kansas City Center
12:19PM 38.4764 -99.7931 60° Northeast 495 570 39,000  Level Kansas City Center
12:20PM 38.5522 -99.6256 60° Northeast 490 564 39,000  Level Kansas City Center
12:21PM 38.6122 -99.4944 60° Northeast 486 559 39,000  Level Kansas City Center
12:22PM 38.6789 -99.3453 60° Northeast 483 556 39,000  Level Kansas City Center
12:23PM 38.7606 -99.1636 60° Northeast 488 562 39,000  Level Kansas City Center
12:24PM 38.8283 -99.0119 60° Northeast 488 562 39,000  Level Kansas City Center
12:25PM 38.8947 -98.8608 61° Northeast 486 559 39,000  Level Kansas City Center
12:26PM 38.9611 -98.7092 61° Northeast 485 558 39,000  Level Kansas City Center
12:27PM 39.0264 -98.5581 61° Northeast 484 557 39,000  Level Kansas City Center
12:28PM 39.0936 -98.4044 61° Northeast 489 563 39,000  Level Kansas City Center
12:29PM 39.1606 -98.2511 61° Northeast 489 563 39,000  Level Kansas City Center
12:30PM 39.2344 -98.0800 61° Northeast 489 563 39,000  Level Kansas City Center
12:31PM 39.3081 -97.9064 61° Northeast 493 567 39,000  Level Kansas City Center
12:32PM 39.3786 -97.7411 61° Northeast 502 578 39,000  Level Kansas City Center
12:33PM 39.4447 -97.5842 61° Northeast 499 574 39,000  Level Kansas City Center
12:34PM 39.5100 -97.4314 61° Northeast 490 564 39,000  Level Kansas City Center
12:35PM 39.5764 -97.2722 62° Northeast 497 572 39,000  Level Kansas City Center
12:36PM 39.6389 -97.1236 61° Northeast 498 573 39,000  Level Kansas City Center
12:38PM 39.7192 -96.9306 62° Northeast 503 579 39,000  Level Kansas City Center
12:39PM 39.7875 -96.7619 62° Northeast 503 579 39,000  Level Kansas City Center
12:40PM 39.8522 -96.6025 62° Northeast 499 574 39,000  Level Kansas City Center
12:41PM 39.9175 -96.4442 62° Northeast 496 571 39,000  Level Kansas City Center
12:41PM 39.9344 -96.3994 64° Northeast 499 574 39,000  Level Minneapolis Center
12:42PM 39.9994 -96.2453 61° Northeast 495 570 39,000  Level Minneapolis Center
12:43PM 40.0644 -96.0853 62° Northeast 494 568 39,000  Level Minneapolis Center
12:44PM 40.1417 -95.8908 62° Northeast 499 574 39,000  Level Minneapolis Center
12:45PM 40.2192 -95.6944 63° Northeast 504 580 39,000  Level Minneapolis Center
12:46PM 40.2833 -95.5317 63° Northeast 505 581 39,000  Level Minneapolis Center
12:48PM 40.3847 -95.2714 63° Northeast 496 571 39,000  Level Kansas City Center
12:48PM 40.4114 -95.2058 62° Northeast 505 581 39,000  Level Minneapolis Center
12:49PM 40.4736 -95.0453 63° Northeast 502 578 39,000  Level Minneapolis Center
12:50PM 40.5486 -94.8531 63° Northeast 499 574 39,000  Level Minneapolis Center
12:51PM 40.6103 -94.6928 63° Northeast 497 572 39,000  Level Minneapolis Center
12:52PM 40.6711 -94.5344 63° Northeast 495 570 39,000  Level Minneapolis Center
12:53PM 40.7319 -94.3711 64° Northeast 496 571 39,000  Level Minneapolis Center
12:55PM 40.7933 -94.2108 63° Northeast 494 568 39,000  Level Minneapolis Center
12:56PM 40.8531 -94.0492 64° Northeast 490 564 39,000  Level Minneapolis Center
12:57PM 40.9133 -93.8900 63° Northeast 491 565 39,000  Level Minneapolis Center
12:58PM 40.9836 -93.6992 64° Northeast 487 560 39,000  Level Minneapolis Center
12:59PM 41.0442 -93.5369 64° Northeast 489 563 39,000  Level Minneapolis Center
01:00PM 41.1047 -93.3761 63° Northeast 490 564 39,000  Level Minneapolis Center
01:01PM 41.1828 -93.2267 55° Northeast 494 568 39,000  Level Minneapolis Center
01:02PM 41.2575 -93.0756 57° Northeast 491 565 39,000  Level Minneapolis Center
01:03PM 41.3322 -92.9272 56° Northeast 486 559 39,000  Level Minneapolis Center
01:04PM 41.4211 -92.7458 57° Northeast 487 560 39,000  Level Minneapolis Center
01:05PM 41.4956 -92.5947 57° Northeast 489 563 39,000  Level Minneapolis Center
01:05PM 41.5156 -92.5517 58° Northeast 490 564 39,000  Level Chicago Center
01:06PM 41.5900 -92.4031 56° Northeast 488 562 39,000  Level Chicago Center
01:07PM 41.6778 -92.2231 57° Northeast 487 560 39,000  Level Chicago Center
01:08PM 41.7503 -92.0717 57° Northeast 487 560 39,000  Level Chicago Center
01:09PM 41.8228 -91.9200 57° Northeast 487 560 39,000  Level Chicago Center
01:10PM 41.8922 -91.7661 59° Northeast 488 562 39,000  Level Chicago Center
01:11PM 41.9369 -91.5978 70° East 483 556 39,000 -60 Level Chicago Center
01:12PM 41.9903 -91.3950 70° East 485 558 38,900 -540 Descending Chicago Center
01:13PM 42.0339 -91.2258 71° East 486 559 37,900 -1,020 Descending Chicago Center
01:14PM 42.0783 -91.0536 71° East 492 566 36,900 -960 Descending Chicago Center
01:16PM 42.1208 -90.8847 71° East 485 558 36,000 -960 Descending Chicago Center
01:17PM 42.1633 -90.7136 71° East 487 560 35,000 -1,020 Descending Chicago Center
01:18PM 42.2167 -90.5072 71° East 490 564 33,900 -1,500 Descending Chicago Center
01:19PM 42.2614 -90.3303 71° East 501 577 32,000 -2,040 Descending Chicago Center
01:20PM 42.3042 -90.1519 72° East 503 579 29,700 -2,160 Descending Chicago Center
01:21PM 42.3469 -89.9742 72° East 503 579 27,600 -1,320 Descending Chicago Center
01:22PM 42.3972 -89.7764 71° East 492 566 27,000 -780 Descending Chicago Center
01:23PM 42.4381 -89.6067 72° East 478 550 26,000 -1,020 Descending Chicago Center
01:24PM 42.4781 -89.4378 72° East 474 545 25,000 -1,020 Descending Chicago Center
01:25PM 42.5183 -89.2697 72° East 469 540 24,000 -1,740 Descending Chicago Center
01:26PM 42.5628 -89.0789 72° East 457 526 21,500 -2,280 Descending Chicago Center
01:27PM 42.5917 -88.9208 76° East 435 501 19,300 -2,280 Descending Chicago Center
01:28PM 42.6194 -88.7692 76° East 420 483 16,900 -2,280 Descending Chicago Center
01:29PM 42.6469 -88.6239 76° East 403 464 14,700 -2,100 Descending Chicago Center
01:30PM 42.6719 -88.4831 76° East 387 445 12,600 -2,220 Descending Chicago Center
01:31PM 42.6997 -88.3278 76° East 369 425 10,200 -1,260 Descending Chicago Center
01:32PM 42.7383 -88.2100 66° East 343 395 10,000 -360 Descending Chicago Center
01:33PM 42.7917 -88.1106 54° Northeast 328 377 9,500 -780 Descending Chicago Center
01:34PM 42.8217 -88.0022 69° East 310 357 8,400 -1,260 Descending Chicago Center
01:35PM 42.8544 -87.8822 70° East 292 336 7,000 -1,020 Descending Chicago Center
01:36PM 42.8800 -87.7906 69° East 263 303 6,400 -1,140 Descending Chicago Center
01:37PM 42.9028 -87.7025 71° East 248 285 4,700 -1,740 Descending Chicago Center
01:38PM 42.9458 -87.6686 30° Northeast 235 270 2,900 -1,080 Descending Chicago Center
01:39PM 42.9850 -87.7053 326° Northwest 198 228 2,500 -240 Descending Chicago Center
01:40PM 42.9781 -87.7553 259° West 152 175 2,500 -300 Level Chicago Center
01:41PM 42.9658 -87.8053 252° West 128 147 1,900 -480 Descending Chicago Center
01:42PM 42.9575 -87.8417 253° West 124 143 1,600 -300 Descending Chicago Center
01:45PM 42.9333 -87.8833 284° West  Level FlightAware Approximate